Portada
METAR-TAF:

METAR-TAF

Aeroports :

Downtown_Memorial_Airport

Spartanburg, Carolina del Sud, Estats Units d'Amèrica

latitud: 34-55N, longitud: 081-57W, altitud: 246 m

Observació

L'informe es va fer fa 19 minuts, a les 21:55 UTC
Vent 4 kt del Nord/Nord-Est
Temperatura 22°C
Humitat 73%
Pressió 1018 hPa
Visibilitat: 16.1 km
Cel clar
tempesta a les proximitats

METAR: KSPA 242155Z AUTO 03004KT 10SM VCTS CLR 22/17 A3005 RMK AO2 LTG DSNT NE THRU S

Hora: 18:14 (22:14 UTC)


TAF: manca

Observacions i pronòstics meteorològics de més de 4000 aeroports (METAR i TAF).

Les estacions disponibles són els punts grocs i vermells al mapa.

Posi el ratolí al punt desitjat per veure el nom de l'estació.

Feu clic per veure les observacions i els pronòstics meteorològics.

Per canviar el mapa: feu clic els botons verds amb una creu de color negre per apropar; al botó verd amb un guió per allunyar la imatge; o en les fletxes verdes per a mapes adjacents.


METAR-TAF: